createdAt,value
2023-01-17T00:00:17.338Z,83.05
2023-01-17T00:01:17.261Z,82.84
2023-01-17T00:02:17.335Z,82.84
2023-01-17T00:03:17.259Z,83.05
2023-01-17T00:04:17.289Z,83.05
2023-01-17T00:05:17.251Z,83.78
2023-01-17T00:06:17.228Z,83.37
2023-01-17T00:07:17.197Z,83.78
2023-01-17T00:08:17.207Z,82.95
2023-01-17T00:09:17.161Z,82.95
2023-01-17T00:10:17.237Z,83.47
2023-01-17T00:11:17.147Z,83.78
2023-01-17T00:12:17.166Z,83.26
2023-01-17T00:13:17.123Z,83.74
2023-01-17T00:14:17.151Z,82.64
2023-01-17T00:15:17.105Z,82.39
2023-01-17T00:16:17.143Z,82.29
2023-01-17T00:17:17.095Z,82.60
2023-01-17T00:18:17.082Z,83.84
2023-01-17T00:19:17.038Z,84.27
2023-01-17T00:20:19.322Z,83.84
2023-01-17T00:21:17.011Z,83.43
2023-01-17T00:22:17.058Z,83.12
2023-01-17T00:23:17.013Z,83.12
2023-01-17T00:24:17.019Z,82.81
2023-01-17T00:25:16.960Z,82.39
2023-01-17T00:26:16.997Z,83.22
2023-01-17T00:27:16.949Z,83.01
2023-01-17T00:28:16.967Z,82.81
2023-01-17T00:29:16.909Z,83.33
2023-01-17T00:30:16.917Z,83.47
2023-01-17T00:31:16.991Z,83.84
2023-01-17T00:32:16.905Z,84.41
2023-01-17T00:33:16.878Z,84.92
2023-01-17T00:34:16.873Z,85.44
2023-01-17T00:35:16.833Z,85.55
2023-01-17T00:36:16.854Z,85.65
2023-01-17T00:37:16.813Z,85.34
2023-01-17T00:38:16.881Z,85.44
2023-01-17T00:39:16.783Z,85.44
2023-01-17T00:40:16.812Z,85.44
2023-01-17T00:41:16.765Z,85.86
2023-01-17T00:42:16.761Z,86.07
2023-01-17T00:43:16.747Z,85.86
2023-01-17T00:44:16.767Z,85.96
2023-01-17T00:45:16.719Z,85.86
2023-01-17T00:46:16.750Z,86.17
2023-01-17T00:47:16.683Z,85.96
2023-01-17T00:48:16.696Z,86.17
2023-01-17T00:49:16.695Z,85.86
2023-01-17T00:50:16.664Z,86.07
2023-01-17T00:51:16.646Z,86.49
2023-01-17T00:52:16.662Z,86.27
2023-01-17T00:53:16.625Z,85.96
2023-01-17T00:54:18.930Z,85.86
2023-01-17T00:55:16.621Z,85.65
2023-01-17T00:56:16.624Z,85.55
2023-01-17T00:57:16.562Z,85.75
2023-01-17T00:58:16.561Z,85.65
2023-01-17T00:59:16.576Z,85.55
2023-01-17T01:00:16.590Z,85.44
2023-01-17T01:01:16.585Z,86.07
2023-01-17T01:02:16.659Z,85.44
2023-01-17T01:03:16.522Z,85.24
2023-01-17T01:04:16.508Z,85.34
2023-01-17T01:05:16.467Z,85.75
2023-01-17T01:06:16.521Z,85.55
2023-01-17T01:07:16.435Z,85.44
2023-01-17T01:08:16.444Z,85.44
2023-01-17T01:09:16.413Z,85.65
2023-01-17T01:10:16.413Z,85.75
2023-01-17T01:11:16.445Z,85.86
2023-01-17T01:12:16.424Z,85.96
2023-01-17T01:13:16.362Z,85.75
2023-01-17T01:14:16.381Z,85.65
2023-01-17T01:15:16.332Z,85.75
2023-01-17T01:16:16.376Z,85.75
2023-01-17T01:17:16.357Z,85.75
2023-01-17T01:18:16.309Z,85.65
2023-01-17T01:19:16.287Z,85.55
2023-01-17T01:20:16.289Z,85.65
2023-01-17T01:21:16.247Z,85.55
2023-01-17T01:22:16.268Z,85.86
2023-01-17T01:23:16.256Z,85.96
2023-01-17T01:24:16.239Z,86.52
2023-01-17T01:25:16.221Z,86.63
2023-01-17T01:26:16.205Z,86.63
2023-01-17T01:27:16.184Z,86.69
2023-01-17T01:28:16.215Z,86.59
2023-01-17T01:29:16.163Z,86.59
2023-01-17T01:30:16.162Z,87.11
2023-01-17T01:31:16.144Z,86.90
2023-01-17T01:32:16.164Z,86.90
2023-01-17T01:33:16.121Z,87.11
2023-01-17T01:34:16.138Z,87.42
2023-01-17T01:35:16.085Z,87.35
2023-01-17T01:36:16.085Z,87.46
2023-01-17T01:37:16.054Z,87.01
2023-01-17T01:38:16.076Z,87.01
2023-01-17T01:39:16.058Z,86.80
2023-01-17T01:40:16.052Z,86.59
2023-01-17T01:41:16.026Z,86.80
2023-01-17T01:42:16.024Z,86.90
2023-01-17T01:43:15.981Z,87.42
2023-01-17T01:44:16.025Z,87.42
2023-01-17T01:45:15.943Z,87.42
2023-01-17T01:46:15.968Z,87.63
2023-01-17T01:47:23.010Z,87.84
2023-01-17T01:48:15.946Z,87.42
2023-01-17T01:49:15.889Z,87.42
2023-01-17T01:50:15.919Z,86.90
2023-01-17T01:51:15.860Z,86.59
2023-01-17T01:52:15.899Z,86.80
2023-01-17T01:53:15.856Z,87.21
2023-01-17T01:54:15.896Z,87.42
2023-01-17T01:55:15.818Z,87.32
2023-01-17T01:56:15.842Z,87.32
2023-01-17T01:57:15.788Z,87.42
2023-01-17T01:58:51.514Z,88.25
2023-01-17T01:59:15.801Z,88.15
2023-01-17T02:00:15.782Z,87.84
2023-01-17T02:01:15.825Z,88.29
2023-01-17T02:02:15.732Z,88.25
2023-01-17T02:03:15.740Z,88.15
2023-01-17T02:04:15.700Z,88.56
2023-01-17T02:05:15.701Z,88.56
2023-01-17T02:06:15.690Z,88.87
2023-01-17T02:07:15.716Z,88.87
2023-01-17T02:08:15.650Z,88.77
2023-01-17T02:09:15.661Z,88.81
2023-01-17T02:10:15.626Z,89.02
2023-01-17T02:11:15.657Z,89.54
2023-01-17T02:12:15.594Z,89.75
2023-01-17T02:13:15.608Z,89.95
2023-01-17T02:14:15.576Z,90.47
2023-01-17T02:15:15.625Z,90.79
2023-01-17T02:16:15.584Z,90.89
2023-01-17T02:17:15.559Z,91.31
2023-01-17T02:18:15.514Z,91.10
2023-01-17T02:19:15.522Z,90.69
2023-01-17T02:20:15.500Z,90.83
2023-01-17T02:21:15.545Z,90.52
2023-01-17T02:22:15.490Z,90.20
2023-01-17T02:23:15.484Z,90.41
2023-01-17T02:24:15.440Z,90.31
2023-01-17T02:25:15.457Z,90.62
2023-01-17T02:26:15.416Z,90.72
2023-01-17T02:27:15.456Z,90.72
2023-01-17T02:28:15.409Z,90.52
2023-01-17T02:29:15.397Z,90.31
2023-01-17T02:30:15.366Z,89.75
2023-01-17T02:31:15.413Z,89.79
2023-01-17T02:32:15.361Z,89.79
2023-01-17T02:33:15.391Z,89.79
2023-01-17T02:34:15.332Z,90.00
2023-01-17T02:35:15.330Z,89.89
2023-01-17T02:36:15.304Z,89.89
2023-01-17T02:37:15.389Z,90.10
2023-01-17T02:38:15.262Z,90.20
2023-01-17T02:39:15.300Z,90.31
2023-01-17T02:40:15.233Z,90.52
2023-01-17T02:41:15.971Z,90.62
2023-01-17T02:42:16.149Z,90.72
2023-01-17T02:43:15.239Z,90.83
2023-01-17T02:44:15.211Z,91.04
2023-01-17T02:45:15.649Z,90.93
2023-01-17T02:46:15.203Z,90.83
2023-01-17T02:47:15.175Z,90.72
2023-01-17T02:48:15.127Z,90.72
2023-01-17T02:49:15.165Z,90.93
2023-01-17T02:50:15.110Z,90.93
2023-01-17T02:51:15.134Z,90.83
2023-01-17T02:52:15.114Z,90.93
2023-01-17T02:53:15.083Z,90.72
2023-01-17T02:54:15.082Z,90.93
2023-01-17T02:55:15.102Z,90.83
2023-01-17T02:56:15.088Z,91.08
2023-01-17T02:57:15.048Z,91.28
2023-01-17T02:58:15.030Z,91.28
2023-01-17T02:59:15.010Z,91.39
2023-01-17T03:00:15.002Z,91.28
2023-01-17T03:01:15.116Z,91.18
2023-01-17T03:02:15.083Z,91.28
2023-01-17T03:03:15.102Z,91.28
2023-01-17T03:04:14.930Z,91.39
2023-01-17T03:05:14.927Z,91.39
2023-01-17T03:06:14.925Z,91.28
2023-01-17T03:07:14.953Z,91.50
2023-01-17T03:08:14.874Z,91.39
2023-01-17T03:09:14.885Z,91.39
2023-01-17T03:10:14.848Z,91.18
2023-01-17T03:11:14.859Z,91.18
2023-01-17T03:12:14.823Z,91.08
2023-01-17T03:13:14.867Z,91.08
2023-01-17T03:14:14.833Z,90.87
2023-01-17T03:15:14.802Z,90.66
2023-01-17T03:16:14.791Z,90.56
2023-01-17T03:17:14.994Z,90.56
2023-01-17T03:18:14.753Z,90.91
2023-01-17T03:19:14.780Z,90.77
2023-01-17T03:20:14.779Z,90.77
2023-01-17T03:21:14.728Z,90.81
2023-01-17T03:22:14.734Z,90.81
2023-01-17T03:23:14.733Z,90.70
2023-01-17T03:24:14.665Z,90.81
2023-01-17T03:25:14.689Z,91.12
2023-01-17T03:26:14.674Z,91.22
2023-01-17T03:27:14.699Z,91.12
2023-01-17T03:28:14.614Z,91.02
2023-01-17T03:29:14.640Z,90.91
2023-01-17T03:30:14.661Z,90.91
2023-01-17T03:31:14.621Z,91.22
2023-01-17T03:32:14.619Z,91.22
2023-01-17T03:33:14.576Z,91.22
2023-01-17T03:34:14.544Z,91.33
2023-01-17T03:35:14.599Z,90.97
2023-01-17T03:36:14.539Z,90.91
2023-01-17T03:37:14.529Z,90.66
2023-01-17T03:38:14.488Z,90.45
2023-01-17T03:39:14.488Z,90.14
2023-01-17T03:40:14.468Z,89.94
2023-01-17T03:41:14.465Z,89.52
2023-01-17T03:42:14.469Z,89.41
2023-01-17T03:43:14.451Z,89.31
2023-01-17T03:44:14.404Z,89.31
2023-01-17T03:45:14.413Z,89.41
2023-01-17T03:46:14.395Z,89.31
2023-01-17T03:47:14.402Z,89.20
2023-01-17T03:48:14.387Z,89.41
2023-01-17T03:49:14.375Z,89.41
2023-01-17T03:50:14.337Z,89.73
2023-01-17T03:51:14.350Z,89.83
2023-01-17T03:52:14.319Z,89.83
2023-01-17T03:53:14.326Z,89.94
2023-01-17T03:54:14.311Z,89.83
2023-01-17T03:55:14.298Z,89.73
2023-01-17T03:56:14.406Z,89.62
2023-01-17T03:57:14.248Z,89.41
2023-01-17T03:58:14.248Z,89.31
2023-01-17T03:59:14.245Z,89.31
2023-01-17T04:00:15.210Z,89.20
2023-01-17T04:01:14.299Z,89.10
2023-01-17T04:02:14.415Z,89.10
2023-01-17T04:03:14.168Z,88.79
2023-01-17T04:04:14.186Z,88.68
2023-01-17T04:05:14.201Z,88.58
2023-01-17T04:06:14.150Z,88.58
2023-01-17T04:07:14.120Z,88.48
2023-01-17T04:08:14.111Z,88.48
2023-01-17T04:09:14.081Z,88.58
2023-01-17T04:10:14.176Z,89.10
2023-01-17T04:11:14.103Z,89.00
2023-01-17T04:12:14.089Z,88.68
2023-01-17T04:13:14.036Z,88.79
2023-01-17T04:14:14.054Z,88.89
2023-01-17T04:15:14.008Z,89.00
2023-01-17T04:16:14.087Z,89.52
2023-01-17T04:17:14.046Z,89.56
2023-01-17T04:18:14.001Z,89.41
2023-01-17T04:19:14.026Z,89.31
2023-01-17T04:20:14.029Z,89.31
2023-01-17T04:21:13.940Z,89.45
2023-01-17T04:22:13.944Z,89.56
2023-01-17T04:23:13.911Z,89.66
2023-01-17T04:24:13.965Z,90.19
2023-01-17T04:25:13.883Z,90.08
2023-01-17T04:26:13.913Z,90.08
2023-01-17T04:27:13.919Z,89.98
2023-01-17T04:28:13.858Z,89.98
2023-01-17T04:29:13.841Z,90.08
2023-01-17T04:30:13.854Z,90.08
2023-01-17T04:31:13.928Z,89.98
2023-01-17T04:32:13.840Z,90.08
2023-01-17T04:33:13.783Z,90.08
2023-01-17T04:34:13.838Z,90.19
2023-01-17T04:35:13.754Z,89.98
2023-01-17T04:36:13.772Z,89.76
2023-01-17T04:37:13.727Z,89.76
2023-01-17T04:38:13.764Z,89.98
2023-01-17T04:39:13.703Z,90.08
2023-01-17T04:40:13.792Z,90.39
2023-01-17T04:41:13.670Z,90.39
2023-01-17T04:42:13.680Z,90.39
2023-01-17T04:43:13.671Z,90.29
2023-01-17T04:44:13.679Z,90.19
2023-01-17T04:45:13.622Z,89.98
2023-01-17T04:46:13.700Z,90.01
2023-01-17T04:47:13.599Z,90.01
2023-01-17T04:48:13.624Z,89.91
2023-01-17T04:49:13.576Z,89.91
2023-01-17T04:50:13.624Z,90.01
2023-01-17T04:51:13.550Z,90.01
2023-01-17T04:52:13.571Z,90.01
2023-01-17T04:53:13.522Z,90.01
2023-01-17T04:54:13.599Z,90.01
2023-01-17T04:55:13.500Z,89.91
2023-01-17T04:56:13.561Z,89.91
2023-01-17T04:57:13.604Z,89.81
2023-01-17T04:58:13.515Z,89.81
2023-01-17T04:59:13.473Z,89.70
2023-01-17T05:00:13.476Z,89.81
2023-01-17T05:01:13.490Z,89.91
2023-01-17T05:02:13.464Z,90.01
2023-01-17T05:03:13.394Z,90.12
2023-01-17T05:04:13.397Z,90.22
2023-01-17T05:05:13.380Z,90.33
2023-01-17T05:06:13.418Z,90.54
2023-01-17T05:07:13.352Z,90.33
2023-01-17T05:08:13.355Z,90.12
2023-01-17T05:09:13.325Z,90.06
2023-01-17T05:10:13.334Z,89.91
2023-01-17T05:11:13.296Z,89.95
2023-01-17T05:12:13.324Z,90.06
2023-01-17T05:13:13.262Z,90.06
2023-01-17T05:14:13.292Z,90.16
2023-01-17T05:15:13.253Z,90.26
2023-01-17T05:16:13.271Z,90.37
2023-01-17T05:17:13.211Z,90.37
2023-01-17T05:18:13.251Z,90.37
2023-01-17T05:19:13.219Z,90.37
2023-01-17T05:20:13.195Z,90.26
2023-01-17T05:21:13.162Z,90.37
2023-01-17T05:22:13.177Z,90.68
2023-01-17T05:23:13.140Z,90.58
2023-01-17T05:24:13.147Z,90.47
2023-01-17T05:25:13.133Z,90.47
2023-01-17T05:26:13.140Z,90.47
2023-01-17T05:27:13.127Z,90.37
2023-01-17T05:28:13.123Z,90.26
2023-01-17T05:29:13.059Z,90.31
2023-01-17T05:30:13.076Z,90.41
2023-01-17T05:31:13.127Z,90.52
2023-01-17T05:32:13.083Z,90.62
2023-01-17T05:33:13.028Z,90.83
2023-01-17T05:34:13.021Z,91.04
2023-01-17T05:35:12.980Z,91.14
2023-01-17T05:36:13.154Z,91.04
2023-01-17T05:37:13.005Z,90.83
2023-01-17T05:38:12.988Z,91.14
2023-01-17T05:39:12.928Z,90.83
2023-01-17T05:40:12.937Z,90.83
2023-01-17T05:41:12.907Z,90.93
2023-01-17T05:42:12.939Z,90.83
2023-01-17T05:43:12.878Z,90.93
2023-01-17T05:44:12.874Z,90.93
2023-01-17T05:45:12.865Z,91.04
2023-01-17T05:46:12.938Z,91.04
2023-01-17T05:47:12.832Z,91.14
2023-01-17T05:48:12.883Z,91.14
2023-01-17T05:49:12.806Z,91.14
2023-01-17T05:50:12.808Z,91.14
2023-01-17T05:51:12.792Z,91.08
2023-01-17T05:52:12.795Z,91.18
2023-01-17T05:53:12.767Z,91.04
2023-01-17T05:54:12.761Z,91.04
2023-01-17T05:55:12.727Z,91.04
2023-01-17T05:56:12.826Z,90.93
2023-01-17T05:57:12.732Z,91.25
2023-01-17T05:58:12.717Z,91.46
2023-01-17T05:59:14.345Z,91.46
2023-01-17T06:00:12.685Z,91.66
2023-01-17T06:01:12.691Z,91.77
2023-01-17T06:02:12.731Z,91.77
2023-01-17T06:03:12.642Z,91.97
2023-01-17T06:04:12.677Z,91.97
2023-01-17T06:05:12.612Z,91.87
2023-01-17T06:06:12.606Z,91.77
2023-01-17T06:07:12.578Z,91.87
2023-01-17T06:08:12.602Z,91.87
2023-01-17T06:09:12.549Z,91.77
2023-01-17T06:10:12.586Z,91.56
2023-01-17T06:11:12.532Z,91.56
2023-01-17T06:12:12.527Z,91.46
2023-01-17T06:13:12.501Z,91.56
2023-01-17T06:14:12.498Z,91.46
2023-01-17T06:15:12.475Z,91.35
2023-01-17T06:16:12.623Z,91.35
2023-01-17T06:17:12.444Z,91.50
2023-01-17T06:18:12.468Z,91.50
2023-01-17T06:19:12.414Z,91.50
2023-01-17T06:20:12.465Z,91.39
2023-01-17T06:21:12.420Z,91.39
2023-01-17T06:22:12.417Z,91.50
2023-01-17T06:23:12.386Z,91.39
2023-01-17T06:24:12.388Z,91.39
2023-01-17T06:25:12.361Z,91.50
2023-01-17T06:26:12.382Z,91.54
2023-01-17T06:27:12.312Z,91.54
2023-01-17T06:28:12.366Z,91.54
2023-01-17T06:29:12.288Z,91.64
2023-01-17T06:30:12.323Z,91.85
2023-01-17T06:31:12.333Z,91.96
2023-01-17T06:32:12.262Z,92.16
2023-01-17T06:33:12.234Z,92.27
2023-01-17T06:34:12.197Z,92.06
2023-01-17T06:35:12.225Z,91.96
2023-01-17T06:36:12.227Z,91.85
2023-01-17T06:37:12.167Z,92.06
2023-01-17T06:38:12.138Z,92.27
2023-01-17T06:39:14.863Z,92.27
2023-01-17T06:40:12.176Z,92.27
2023-01-17T06:41:12.110Z,92.06
2023-01-17T06:42:12.148Z,91.96
2023-01-17T06:43:12.061Z,92.06
2023-01-17T06:44:12.133Z,92.37
2023-01-17T06:45:12.064Z,92.47
2023-01-17T06:46:12.075Z,92.47
2023-01-17T06:47:11.999Z,93.00
2023-01-17T06:48:12.047Z,93.21
2023-01-17T06:49:11.987Z,93.00
2023-01-17T06:50:11.994Z,93.00
2023-01-17T06:51:12.006Z,92.90
2023-01-17T06:52:11.977Z,93.31
2023-01-17T06:53:11.976Z,93.37
2023-01-17T06:54:11.941Z,93.69
2023-01-17T06:55:11.904Z,93.69
2023-01-17T06:56:11.915Z,93.48
2023-01-17T06:57:11.880Z,92.75
2023-01-17T06:58:11.924Z,91.81
2023-01-17T06:59:11.862Z,91.29
2023-01-17T07:00:11.860Z,90.87
2023-01-17T07:01:11.957Z,90.77
2023-01-17T07:02:11.842Z,90.87
2023-01-17T07:03:11.799Z,91.08
2023-01-17T07:04:11.881Z,91.43
2023-01-17T07:05:11.775Z,91.54
2023-01-17T07:06:11.793Z,91.50
2023-01-17T07:07:11.747Z,91.60
2023-01-17T07:08:11.761Z,91.81
2023-01-17T07:09:11.734Z,91.96
2023-01-17T07:10:11.758Z,92.16
2023-01-17T07:11:11.702Z,91.91
2023-01-17T07:12:11.818Z,91.71
2023-01-17T07:13:11.717Z,91.71
2023-01-17T07:14:11.674Z,91.71
2023-01-17T07:15:11.651Z,91.81
2023-01-17T07:16:11.662Z,91.81
2023-01-17T07:17:11.620Z,91.60
2023-01-17T07:18:11.631Z,91.50
2023-01-17T07:19:11.912Z,91.50
2023-01-17T07:20:11.599Z,91.39
2023-01-17T07:21:11.591Z,91.29
2023-01-17T07:22:11.578Z,91.35
2023-01-17T07:23:11.560Z,91.35
2023-01-17T07:24:11.587Z,91.35
2023-01-17T07:25:11.524Z,91.35
2023-01-17T07:26:11.536Z,91.25
2023-01-17T07:27:11.495Z,91.04
2023-01-17T07:28:11.526Z,91.14
2023-01-17T07:29:11.496Z,91.14
2023-01-17T07:30:11.474Z,90.93
2023-01-17T07:31:11.476Z,91.04
2023-01-17T07:32:11.457Z,91.04
2023-01-17T07:33:11.421Z,91.35
2023-01-17T07:34:11.470Z,91.46
2023-01-17T07:35:11.420Z,91.66
2023-01-17T07:36:11.399Z,91.77
2023-01-17T07:37:13.062Z,91.66
2023-01-17T07:38:11.420Z,91.66
2023-01-17T07:39:11.373Z,91.56
2023-01-17T07:40:11.362Z,91.56
2023-01-17T07:41:11.346Z,91.46
2023-01-17T07:42:11.542Z,91.46
2023-01-17T07:43:11.286Z,91.66
2023-01-17T07:44:11.305Z,91.87
2023-01-17T07:45:11.317Z,92.08
2023-01-17T07:46:11.298Z,91.97
2023-01-17T07:47:11.274Z,91.87
2023-01-17T07:48:18.320Z,91.87
2023-01-17T07:49:12.024Z,91.83
2023-01-17T07:50:11.795Z,91.52
2023-01-17T07:51:11.230Z,91.52
2023-01-17T07:52:11.569Z,91.66
2023-01-17T07:53:11.240Z,91.77
2023-01-17T07:54:11.179Z,91.87
2023-01-17T07:55:11.252Z,92.08
2023-01-17T07:56:11.227Z,92.18
2023-01-17T07:57:11.172Z,92.29
2023-01-17T07:58:11.121Z,92.40
2023-01-17T07:59:11.156Z,92.40
2023-01-17T08:00:11.098Z,92.35
2023-01-17T08:01:11.231Z,92.35
2023-01-17T08:02:11.227Z,92.03
2023-01-17T08:03:11.082Z,92.03
2023-01-17T08:04:11.083Z,92.03
2023-01-17T08:05:11.106Z,92.03
2023-01-17T08:06:11.009Z,92.25
2023-01-17T08:07:10.981Z,92.46
2023-01-17T08:08:11.001Z,92.56
2023-01-17T08:09:10.969Z,92.46
2023-01-17T08:10:10.939Z,92.56
2023-01-17T08:11:11.031Z,92.56
2023-01-17T08:12:10.957Z,92.56
2023-01-17T08:13:10.980Z,92.41
2023-01-17T08:14:10.889Z,92.31
2023-01-17T08:15:11.028Z,92.31
2023-01-17T08:16:10.922Z,92.31
2023-01-17T08:17:10.901Z,92.31
2023-01-17T08:18:10.932Z,92.31
2023-01-17T08:19:10.853Z,92.31
2023-01-17T08:20:10.905Z,92.21
2023-01-17T08:21:10.992Z,92.21
2023-01-17T08:22:10.803Z,92.10
2023-01-17T08:23:10.844Z,91.89
2023-01-17T08:24:10.773Z,91.78
2023-01-17T08:25:10.852Z,91.64
2023-01-17T08:26:10.775Z,91.64
2023-01-17T08:27:11.788Z,91.85
2023-01-17T08:28:10.869Z,91.64
2023-01-17T08:29:10.736Z,91.43
2023-01-17T08:30:10.718Z,91.33
2023-01-17T08:31:10.843Z,91.33
2023-01-17T08:32:10.666Z,91.22
2023-01-17T08:33:10.754Z,91.22
2023-01-17T08:34:10.638Z,90.91
2023-01-17T08:35:10.644Z,90.56
2023-01-17T08:36:10.660Z,90.35
2023-01-17T08:37:10.682Z,90.35
2023-01-17T08:38:10.690Z,90.14
2023-01-17T08:39:10.645Z,89.73
2023-01-17T08:40:10.569Z,89.62
2023-01-17T08:41:10.574Z,89.52
2023-01-17T08:42:10.565Z,89.52
2023-01-17T08:43:10.561Z,89.37
2023-01-17T08:44:10.612Z,89.06
2023-01-17T08:45:10.499Z,88.85
2023-01-17T08:46:10.569Z,88.64
2023-01-17T08:47:10.490Z,88.43
2023-01-17T08:48:10.478Z,87.92
2023-01-17T08:49:10.484Z,87.60
2023-01-17T08:50:10.501Z,87.50
2023-01-17T08:51:10.453Z,87.40
2023-01-17T08:52:10.556Z,86.94
2023-01-17T08:53:10.420Z,86.63
2023-01-17T08:54:10.437Z,86.63
2023-01-17T08:55:10.451Z,86.32
2023-01-17T08:56:10.442Z,86.63
2023-01-17T08:57:10.366Z,87.88
2023-01-17T08:58:10.339Z,87.77
2023-01-17T08:59:10.340Z,86.52
2023-01-17T09:00:10.324Z,85.75
2023-01-17T09:01:10.478Z,85.13
2023-01-17T09:02:10.330Z,85.13
2023-01-17T09:03:10.284Z,84.72
2023-01-17T09:04:10.336Z,84.51
2023-01-17T09:05:10.289Z,84.51
2023-01-17T09:06:10.262Z,84.30
2023-01-17T09:07:10.235Z,84.41
2023-01-17T09:08:10.206Z,84.20
2023-01-17T09:09:10.241Z,84.09
2023-01-17T09:10:10.203Z,84.09
2023-01-17T09:11:10.217Z,83.78
2023-01-17T09:12:10.166Z,83.68
2023-01-17T09:13:10.183Z,83.89
2023-01-17T09:14:10.142Z,83.89
2023-01-17T09:15:10.167Z,83.99
2023-01-17T09:16:10.154Z,83.89
2023-01-17T09:17:10.145Z,83.99
2023-01-17T09:18:10.103Z,83.89
2023-01-17T09:19:10.089Z,83.53
2023-01-17T09:20:10.085Z,83.68
2023-01-17T09:21:10.081Z,83.53
2023-01-17T09:22:10.029Z,83.43
2023-01-17T09:23:10.047Z,83.22
2023-01-17T09:24:10.007Z,83.12
2023-01-17T09:25:10.012Z,82.70
2023-01-17T09:26:10.038Z,82.84
2023-01-17T09:27:10.015Z,82.60
2023-01-17T09:28:09.955Z,82.18
2023-01-17T09:29:09.978Z,82.18
2023-01-17T09:30:09.925Z,82.29
2023-01-17T09:31:10.044Z,82.18
2023-01-17T09:32:09.954Z,81.46
2023-01-17T09:33:09.903Z,81.46
2023-01-17T09:34:09.895Z,81.15
2023-01-17T09:35:09.908Z,81.04
2023-01-17T09:36:09.867Z,80.21
2023-01-17T09:37:09.882Z,79.80
2023-01-17T09:38:09.991Z,80.00
2023-01-17T09:39:09.849Z,79.58
2023-01-17T09:40:09.850Z,79.38
2023-01-17T09:41:09.808Z,79.27
2023-01-17T09:42:09.793Z,79.58
2023-01-17T09:43:09.837Z,79.38
2023-01-17T09:44:09.770Z,78.86
2023-01-17T09:45:09.796Z,78.65
2023-01-17T09:46:09.760Z,78.55
2023-01-17T09:47:09.772Z,78.41
2023-01-17T09:48:09.723Z,78.51
2023-01-17T09:49:09.714Z,78.51
2023-01-17T09:50:09.693Z,77.99
2023-01-17T09:51:09.719Z,77.99
2023-01-17T09:52:09.656Z,77.99
2023-01-17T09:53:09.681Z,77.58
2023-01-17T09:54:09.634Z,77.68
2023-01-17T09:55:09.658Z,77.89
2023-01-17T09:56:09.640Z,77.99
2023-01-17T09:57:09.647Z,77.68
2023-01-17T09:58:09.596Z,77.37
2023-01-17T09:59:09.609Z,77.37
2023-01-17T10:00:09.610Z,77.16
2023-01-17T10:01:09.623Z,77.37
2023-01-17T10:02:09.686Z,77.58
2023-01-17T10:03:09.759Z,77.26
2023-01-17T10:04:09.575Z,77.26
2023-01-17T10:05:09.572Z,76.85
2023-01-17T10:06:09.506Z,76.85
2023-01-17T10:07:09.512Z,77.06
2023-01-17T10:08:09.526Z,76.92
2023-01-17T10:09:09.497Z,76.81
2023-01-17T10:10:09.516Z,77.23
2023-01-17T10:11:09.451Z,76.95
2023-01-17T10:12:09.498Z,77.06
2023-01-17T10:13:09.411Z,77.37
2023-01-17T10:14:09.377Z,77.47
2023-01-17T10:15:09.417Z,76.85
2023-01-17T10:16:09.349Z,77.16
2023-01-17T10:17:09.408Z,77.02
2023-01-17T10:18:14.542Z,76.71
2023-01-17T10:19:10.375Z,76.61
2023-01-17T10:20:09.295Z,76.64
2023-01-17T10:21:09.304Z,76.40
2023-01-17T10:22:09.285Z,76.50
2023-01-17T10:23:09.354Z,76.61
2023-01-17T10:24:09.272Z,76.29
2023-01-17T10:25:09.307Z,76.29
2023-01-17T10:26:09.221Z,76.92
2023-01-17T10:27:09.226Z,76.09
2023-01-17T10:28:09.193Z,76.61
2023-01-17T10:29:09.238Z,76.40
2023-01-17T10:30:09.180Z,76.50
2023-01-17T10:31:09.267Z,75.26
2023-01-17T10:32:09.138Z,74.84
2023-01-17T10:33:09.148Z,74.91
2023-01-17T10:34:09.108Z,75.02
2023-01-17T10:35:09.158Z,74.60
2023-01-17T10:36:09.079Z,74.19
2023-01-17T10:37:09.097Z,74.81
2023-01-17T10:38:09.111Z,75.23
2023-01-17T10:39:09.055Z,75.33
2023-01-17T10:40:09.025Z,75.02
2023-01-17T10:41:09.063Z,75.33
2023-01-17T10:42:09.011Z,75.23
2023-01-17T10:43:09.018Z,75.23
2023-01-17T10:44:09.015Z,75.54
2023-01-17T10:45:09.355Z,75.95
2023-01-17T10:46:08.975Z,76.68
2023-01-17T10:47:08.970Z,75.92
2023-01-17T10:48:08.921Z,75.60
2023-01-17T10:49:08.949Z,75.29
2023-01-17T10:50:08.928Z,74.98
2023-01-17T10:51:08.920Z,74.77
2023-01-17T10:52:08.897Z,74.46
2023-01-17T10:53:08.888Z,74.15
2023-01-17T10:54:08.838Z,73.94
2023-01-17T10:55:08.858Z,73.53
2023-01-17T10:56:08.847Z,73.53
2023-01-17T10:57:08.855Z,73.11
2023-01-17T10:58:08.804Z,74.98
2023-01-17T10:59:08.815Z,75.50
2023-01-17T11:00:08.765Z,75.29
2023-01-17T11:01:08.913Z,74.57
2023-01-17T11:02:08.813Z,74.88
2023-01-17T11:03:08.849Z,73.01
2023-01-17T11:04:08.731Z,73.63
2023-01-17T11:05:08.741Z,73.49
2023-01-17T11:06:08.722Z,72.05
2023-01-17T11:07:08.722Z,72.46
2023-01-17T11:08:08.707Z,72.05
2023-01-17T11:09:08.693Z,70.90
2023-01-17T11:10:08.648Z,70.39
2023-01-17T11:11:08.700Z,71.11
2023-01-17T11:12:08.655Z,71.22
2023-01-17T11:13:08.660Z,70.90
2023-01-17T11:14:08.577Z,70.70
2023-01-17T11:15:08.662Z,70.80
2023-01-17T11:16:08.589Z,71.42
2023-01-17T11:17:08.624Z,71.11
2023-01-17T11:18:08.554Z,70.80
2023-01-17T11:19:08.555Z,71.53
2023-01-17T11:20:08.524Z,72.05
2023-01-17T11:21:08.543Z,71.73
2023-01-17T11:22:08.500Z,71.42
2023-01-17T11:23:08.553Z,72.05
2023-01-17T11:24:08.459Z,71.53
2023-01-17T11:25:08.462Z,71.53
2023-01-17T11:26:08.475Z,71.53
2023-01-17T11:27:08.443Z,71.73
2023-01-17T11:28:08.411Z,71.94
2023-01-17T11:29:08.486Z,72.36
2023-01-17T11:30:08.382Z,72.46
2023-01-17T11:31:08.470Z,72.46
2023-01-17T11:32:08.406Z,72.25
2023-01-17T11:33:08.356Z,72.77
2023-01-17T11:34:08.326Z,72.56
2023-01-17T11:35:08.383Z,72.46
2023-01-17T11:36:08.347Z,72.36
2023-01-17T11:37:08.335Z,72.05
2023-01-17T11:38:08.302Z,72.36
2023-01-17T11:39:08.312Z,72.15
2023-01-17T11:40:08.261Z,72.56
2023-01-17T11:41:08.266Z,72.56
2023-01-17T11:42:08.297Z,72.25
2023-01-17T11:43:08.242Z,72.56
2023-01-17T11:44:08.221Z,72.67
2023-01-17T11:45:08.207Z,72.36
2023-01-17T11:46:08.245Z,72.15
2023-01-17T11:47:08.199Z,71.42
2023-01-17T11:48:08.184Z,71.73
2023-01-17T11:49:08.158Z,71.94
2023-01-17T11:50:08.137Z,71.59
2023-01-17T11:51:08.127Z,71.18
2023-01-17T11:52:08.101Z,70.76
2023-01-17T11:53:08.105Z,70.25
2023-01-17T11:54:08.122Z,70.90
2023-01-17T11:55:08.083Z,70.80
2023-01-17T11:56:08.063Z,70.80
2023-01-17T11:57:08.052Z,70.80
2023-01-17T11:58:08.021Z,70.80
2023-01-17T11:59:08.063Z,70.59
2023-01-17T12:00:08.011Z,70.49
2023-01-17T12:01:08.068Z,70.80
2023-01-17T12:02:07.990Z,71.11
2023-01-17T12:03:08.032Z,71.01
2023-01-17T12:04:08.016Z,70.80
2023-01-17T12:05:07.978Z,70.49
2023-01-17T12:06:07.917Z,69.35
2023-01-17T12:07:07.968Z,68.41
2023-01-17T12:08:07.897Z,67.79
2023-01-17T12:09:07.946Z,68.52
2023-01-17T12:10:07.891Z,68.52
2023-01-17T12:11:07.886Z,67.27
2023-01-17T12:12:07.893Z,66.86
2023-01-17T12:13:07.873Z,66.65
2023-01-17T12:14:07.824Z,66.96
2023-01-17T12:15:07.843Z,67.17
2023-01-17T12:16:07.798Z,67.17
2023-01-17T12:17:07.820Z,67.27
2023-01-17T12:18:07.781Z,67.58
2023-01-17T12:19:07.833Z,67.17
2023-01-17T12:20:07.789Z,67.48
2023-01-17T12:21:07.748Z,68.21
2023-01-17T12:22:07.730Z,68.31
2023-01-17T12:23:07.748Z,66.96
2023-01-17T12:24:07.699Z,67.17
2023-01-17T12:25:07.738Z,67.27
2023-01-17T12:26:07.699Z,67.27
2023-01-17T12:27:07.658Z,66.96
2023-01-17T12:28:07.667Z,66.96
2023-01-17T12:29:07.639Z,66.65
2023-01-17T12:30:07.656Z,66.86
2023-01-17T12:31:07.649Z,67.38
2023-01-17T12:32:07.686Z,67.79
2023-01-17T12:33:07.572Z,67.90
2023-01-17T12:34:08.154Z,68.21
2023-01-17T12:35:07.568Z,67.58
2023-01-17T12:36:07.572Z,68.10
2023-01-17T12:37:07.546Z,67.79
2023-01-17T12:38:07.575Z,67.90
2023-01-17T12:39:07.501Z,67.38
2023-01-17T12:40:07.525Z,67.38
2023-01-17T12:41:07.490Z,67.17
2023-01-17T12:42:07.518Z,67.27
2023-01-17T12:43:07.438Z,67.48
2023-01-17T12:44:07.492Z,67.07
2023-01-17T12:45:07.419Z,67.27
2023-01-17T12:46:07.415Z,67.07
2023-01-17T12:47:07.397Z,66.75
2023-01-17T12:48:07.444Z,66.65
2023-01-17T12:49:07.404Z,66.75
2023-01-17T12:50:07.391Z,67.17
2023-01-17T12:51:07.352Z,67.17
2023-01-17T12:52:07.372Z,67.69